Alabaster, AL

6:22 PM CDT on October 13, 2019 (GMT -0500)
Holland Lakes | | Change Station

Elev 452 ft 33.27 °N, 86.81 °W | Updated 7 seconds ago

Overcast
Overcast
56.1 °F
Feels Like 56.1 °F
N
1
Wind Variable Wind from NW
Gusts 2.0 mph

Today
High -- | Low -- °F
--% Chance of Precip.
Yesterday
High -- | Low -- °F
Precip. -- in
Pressure 30.09 in
Visibility 3.0 miles
Clouds Mostly Cloudy 7000 ft
Overcast 9000 ft
Dew Point 54 °F
Humidity 94%
Rainfall 0.11 in
Snow Depth Not available.
6:50 AM 6:16 PM
Full, 100% visible
METAR KEET 132253Z AUTO 31008KT 3SM -RA BR BKN070 OVC090 14/12 A3010 RMK AO2 RAB30 PRESRR SLP188 P0002 T01390122
Pressure 30.09 in
Visibility 3.0 miles
Clouds Mostly Cloudy 7000 ft
Overcast 9000 ft
Dew Point 54 °F
Humidity 94%
Rainfall 0.11 in
Snow Depth Not available.
6:50 AM 6:16 PM
Full, 100% visible
METAR KEET 132253Z AUTO 31008KT 3SM -RA BR BKN070 OVC090 14/12 A3010 RMK AO2 RAB30 PRESRR SLP188 P0002 T01390122

Get Severe Weather Alerts

Thanks for signing up!

Be on the lookout for a verification email in your inbox.

You'll start receiving the daily forecast at 6 AM.

×

10-Day Weather Forecast

Almanac

Astronomy

Oct. 13, 2019 Rise Set
Actual Time
Civil Twilight
Nautical Twilight
Astronomical Twilight
Moon
Length of Visible Light
Length of Day
Tomorrow will be .
, % of the Moon is Illuminated

Today's Extremes

State Highs State Lows

Community

WunderPhotos

Category 6

Welcome to Category 6. This is the collective home for Weather Underground's featured writeups by Dr. Jeff Masters (right), Bob Henson (left), Chris Burt, and other regular contributors.

Nearby

Air Quality

  Air Quality AQ Index Pollutant
Not available.

Snow Depth

Station Depth Elevation

Earthquake Activity

City Distance Mag. Time & Date
Minimum magnitude displayed is 2.5.

Coastal Water Temperatures

Place Temperature

Stations

Nearby Weather Stations

Station Location Temp. Windchill Dew Point Humidity Wind Precip. Elev Updated Type
                   

Watches & Warnings

There are currently no watches in effect.